createdAt,value
2023-01-28T00:00:01.125Z,0.00
2023-01-28T00:10:00.810Z,0.00
2023-01-28T00:20:01.008Z,0.00
2023-01-28T00:30:00.973Z,0.00
2023-01-28T00:40:02.374Z,0.00
2023-01-28T00:50:01.431Z,0.00
2023-01-28T01:00:01.289Z,0.00
2023-01-28T01:10:01.228Z,0.00
2023-01-28T01:20:01.292Z,1.02
2023-01-28T01:30:01.010Z,0.00
2023-01-28T01:40:00.987Z,0.00
2023-01-28T01:50:02.096Z,0.00
2023-01-28T02:00:01.314Z,0.00
2023-01-28T02:10:01.226Z,0.00
2023-01-28T02:20:01.089Z,0.00
2023-01-28T02:30:00.984Z,0.00
2023-01-28T02:40:01.017Z,0.00
2023-01-28T02:50:01.014Z,0.00
2023-01-28T03:00:04.230Z,0.00
2023-01-28T03:10:00.990Z,0.00
2023-01-28T03:20:01.032Z,0.00
2023-01-28T03:30:00.184Z,0.00
2023-01-28T03:40:01.098Z,0.00
2023-01-28T03:50:02.138Z,0.00
2023-01-28T04:00:01.738Z,0.00
2023-01-28T04:10:01.279Z,0.00
2023-01-28T04:20:01.217Z,0.00
2023-01-28T04:30:00.207Z,0.00
2023-01-28T04:40:03.398Z,0.00
2023-01-28T04:50:01.233Z,0.00
2023-01-28T05:00:03.214Z,0.00
2023-01-28T05:10:01.028Z,0.00
2023-01-28T05:20:01.479Z,0.00
2023-01-28T05:30:00.984Z,0.00
2023-01-28T05:40:00.826Z,0.00
2023-01-28T05:50:01.098Z,0.00
2023-01-28T06:00:02.174Z,0.00
2023-01-28T06:10:01.297Z,0.00
2023-01-28T06:20:01.967Z,0.23
2023-01-28T06:30:01.018Z,1.58
2023-01-28T06:40:01.033Z,8.49
2023-01-28T06:50:01.043Z,11.67
2023-01-28T07:00:01.278Z,33.33
2023-01-28T07:10:01.287Z,66.67
2023-01-28T07:20:02.188Z,103.33
2023-01-28T07:30:01.053Z,161.67
2023-01-28T07:40:01.901Z,226.67
2023-01-28T07:50:01.530Z,286.67
2023-01-28T08:00:01.059Z,346.67
2023-01-28T08:10:00.195Z,435.00
2023-01-28T08:20:01.213Z,471.67
2023-01-28T08:30:01.233Z,1086.67
2023-01-28T08:40:01.331Z,1280.00
2023-01-28T08:50:01.097Z,695.00
2023-01-28T09:00:01.146Z,715.00
2023-01-28T09:10:01.540Z,835.00
2023-01-28T09:20:01.578Z,873.33
2023-01-28T09:30:01.119Z,1013.33
2023-01-28T09:40:01.435Z,1026.67
2023-01-28T09:50:02.186Z,1113.33
2023-01-28T10:00:01.027Z,1170.00
2023-01-28T10:10:02.407Z,1070.00
2023-01-28T10:20:01.224Z,1018.33
2023-01-28T10:30:02.050Z,2240.00
2023-01-28T10:40:01.478Z,1205.00
2023-01-28T10:50:01.002Z,1103.33
2023-01-28T11:00:01.031Z,1925.42
2023-01-28T11:10:02.521Z,961.67
2023-01-28T11:20:01.117Z,870.00
2023-01-28T11:30:01.087Z,788.33
2023-01-28T11:40:01.035Z,881.67
2023-01-28T11:50:01.443Z,1178.33
2023-01-28T12:00:01.066Z,1965.00
2023-01-28T12:10:03.611Z,2831.67
2023-01-28T12:20:01.308Z,2343.33
2023-01-28T12:30:01.033Z,1846.67
2023-01-28T12:40:01.983Z,1635.00
2023-01-28T12:50:02.172Z,1916.67
2023-01-28T13:00:01.227Z,1676.67
2023-01-28T13:10:01.196Z,1596.67
2023-01-28T13:20:01.709Z,3524.17
2023-01-28T13:30:01.385Z,1306.67
2023-01-28T13:40:01.151Z,1280.00
2023-01-28T13:50:01.738Z,586.67
2023-01-28T14:00:01.488Z,545.00
2023-01-28T14:10:01.429Z,643.33
2023-01-28T14:20:02.203Z,733.33
2023-01-28T14:30:01.280Z,966.67
2023-01-28T14:40:01.120Z,576.67
2023-01-28T14:50:01.161Z,431.67
2023-01-28T15:00:01.556Z,213.33
2023-01-28T15:10:01.108Z,215.00
2023-01-28T15:20:01.043Z,121.67
2023-01-28T15:30:01.453Z,100.00
2023-01-28T15:40:02.058Z,135.83
2023-01-28T15:50:00.972Z,63.33
2023-01-28T16:00:01.017Z,8.33
2023-01-28T16:10:01.762Z,5.66
2023-01-28T16:20:01.172Z,2.26
2023-01-28T16:30:01.116Z,0.23
2023-01-28T16:40:02.366Z,0.00
2023-01-28T16:50:01.121Z,0.11
2023-01-28T17:00:01.378Z,0.11
2023-01-28T17:10:02.929Z,0.11
2023-01-28T17:20:02.305Z,0.11
2023-01-28T17:30:01.078Z,0.00
2023-01-28T17:40:01.591Z,0.00
2023-01-28T17:50:02.166Z,0.11
2023-01-28T18:00:02.620Z,0.00
2023-01-28T18:10:02.614Z,0.00
2023-01-28T18:30:00.811Z,0.00
2023-01-28T18:40:01.678Z,0.00
2023-01-28T18:50:02.157Z,0.00
2023-01-28T19:00:01.869Z,0.00
2023-01-28T19:10:02.293Z,0.11
2023-01-28T19:20:01.124Z,0.00
2023-01-28T19:30:02.083Z,0.00
2023-01-28T19:40:01.137Z,1.02
2023-01-28T19:50:01.040Z,1.13
2023-01-28T20:00:03.969Z,0.11
2023-01-28T20:10:01.571Z,0.00
2023-01-28T20:20:02.005Z,0.00
2023-01-28T20:30:02.568Z,0.00
2023-01-28T20:40:01.350Z,0.00
2023-01-28T20:50:01.471Z,0.00
2023-01-28T21:00:01.037Z,0.00
2023-01-28T21:10:02.485Z,0.00
2023-01-28T21:20:01.051Z,0.00
2023-01-28T21:30:02.861Z,0.91
2023-01-28T21:40:02.705Z,0.00
2023-01-28T21:50:01.540Z,0.00
2023-01-28T22:00:02.050Z,0.00
2023-01-28T22:10:01.344Z,0.00
2023-01-28T22:20:01.056Z,0.00
2023-01-28T22:40:02.099Z,0.00
2023-01-28T22:50:01.012Z,0.00
2023-01-28T23:00:01.889Z,0.00
2023-01-28T23:10:01.103Z,0.00
2023-01-28T23:20:01.001Z,0.00
2023-01-28T23:30:01.502Z,0.00
2023-01-28T23:40:01.066Z,0.00
2023-01-28T23:50:01.115Z,0.00
